»·PEaware :: DAL877 KPDX-KSFO

DAL877 :: KPDX-KSFO

FLIGHT INFORMATION

Flight Status: Arrived
Operator:
Delta Air Lines
More flights by this operator :: More flights under this callsign
Pilot: Anthony T. (15846)
Aircraft: BOEING 737-800
(B738)
More flights by this aircraft type
Origin: KPDX Portland Intl
United States
Destination: KSFO San Francisco Intl
United States
More flights between these airports :: More routes between these airports
Route: +MINNE5 EASON Q1 ETCHY MLBEC BDEGA2
File this flight plan on PilotEdge
Remarks:
Altitude:
(Current/Filed)
25,000ft
Speed:
(Current/Filed)
315kts
Departed: 16-Apr-18 01:13 PM
Arrived: 16-Apr-18 02:31 PM
Distance/Time
Traveled:
478nm/1:18
Distance/Time
To Go:
Arrived

Flight Plot

Page will automatically refresh every two minutes.


Map Options




Map Legend


Flown Route
Filed Route
Departure Airport
Arrival Airport
Navaid (VOR, NDB)
Fix

Horizontal Profiles

Position Reports

Time Latitude Longitude Heading Altitude Ground
Speed
16-Apr-18 13:05 45.584615 -122.589333 31 25ft 0kts
16-Apr-18 13:06 45.584615 -122.589333 31 25ft 0kts
16-Apr-18 13:07 45.584420 -122.589524 47 25ft 5kts
16-Apr-18 13:08 45.584376 -122.589776 113 25ft 0kts
16-Apr-18 13:09 45.584376 -122.589776 113 25ft 0kts
16-Apr-18 13:10 45.583317 -122.587914 118 25ft 16kts
16-Apr-18 13:11 45.581885 -122.584235 122 22ft 10kts
16-Apr-18 13:12 45.583224 -122.590879 296 23ft 116kts
16-Apr-18 13:13 45.612991 -122.662456 297 2300ft 253kts
16-Apr-18 13:14 45.648806 -122.749808 296 5218ft 262kts
16-Apr-18 13:15 45.664597 -122.844967 255 8224ft 258kts
16-Apr-18 13:16 45.621711 -122.921495 198 11227ft 308kts
16-Apr-18 13:17 45.533369 -122.932696 188 14207ft 333kts
16-Apr-18 13:18 45.440435 -122.943472 188 17181ft 349kts
16-Apr-18 13:19 45.342212 -122.954890 187 20180ft 366kts
16-Apr-18 13:20 45.239144 -122.966877 188 23177ft 384kts
16-Apr-18 13:21 45.135876 -123.012516 201 25028ft 419kts
16-Apr-18 13:22 45.016492 -123.072273 201 25032ft 474kts
16-Apr-18 13:23 44.893552 -123.133803 201 24973ft 483kts
16-Apr-18 13:24 44.771148 -123.194780 201 24983ft 482kts
16-Apr-18 13:25 44.644973 -123.257351 201 25005ft 482kts
16-Apr-18 13:26 44.518523 -123.318482 196 24987ft 484kts
16-Apr-18 13:27 44.383933 -123.324113 180 25008ft 488kts
16-Apr-18 13:28 44.248176 -123.319078 180 25008ft 488kts
16-Apr-18 13:29 44.113440 -123.313869 180 25008ft 489kts
16-Apr-18 13:30 43.977207 -123.308633 180 27226ft 505kts
16-Apr-18 13:31 43.835098 -123.303182 180 29730ft 520kts
16-Apr-18 13:32 43.689221 -123.297611 180 31021ft 536kts
16-Apr-18 13:33 43.540154 -123.291941 180 31025ft 535kts
16-Apr-18 13:34 43.391772 -123.286334 180 31026ft 535kts
16-Apr-18 13:35 43.243498 -123.280765 180 31026ft 535kts
16-Apr-18 13:36 43.095135 -123.275216 180 31027ft 535kts
16-Apr-18 13:37 42.947190 -123.269684 180 31027ft 534kts
16-Apr-18 13:38 42.800020 -123.264243 180 31024ft 533kts
16-Apr-18 13:39 42.652394 -123.258804 180 31020ft 533kts
16-Apr-18 13:40 42.504450 -123.253373 180 31017ft 532kts
16-Apr-18 13:41 42.356613 -123.247977 180 31018ft 533kts
16-Apr-18 13:42 42.208892 -123.242600 180 31020ft 532kts
16-Apr-18 13:43 42.061475 -123.237267 180 31022ft 533kts
16-Apr-18 13:44 41.913685 -123.231945 180 31023ft 533kts
16-Apr-18 13:45 41.766712 -123.226674 180 31012ft 533kts
16-Apr-18 13:46 41.619004 -123.221400 180 31034ft 533kts
16-Apr-18 13:47 41.473336 -123.216224 180 31039ft 533kts
16-Apr-18 13:48 41.325476 -123.210997 180 31038ft 533kts
16-Apr-18 13:49 41.177625 -123.205790 180 31038ft 533kts
16-Apr-18 13:50 41.030075 -123.200569 181 31049ft 531kts
16-Apr-18 13:51 40.884954 -123.195541 181 31067ft 528kts
16-Apr-18 13:52 40.738249 -123.190455 181 31070ft 528kts
16-Apr-18 13:53 40.591578 -123.185384 181 31073ft 529kts
16-Apr-18 13:54 40.444946 -123.180333 181 31073ft 529kts
16-Apr-18 13:55 40.298275 -123.175306 181 31074ft 529kts
16-Apr-18 13:56 40.153147 -123.170351 181 31088ft 528kts
16-Apr-18 13:57 40.005783 -123.165343 181 31100ft 528kts
16-Apr-18 13:58 39.859991 -123.160406 181 31104ft 528kts
16-Apr-18 13:59 39.713557 -123.155471 181 31100ft 529kts
16-Apr-18 14:00 39.567196 -123.150560 181 31098ft 529kts
16-Apr-18 14:01 39.420293 -123.145652 181 31100ft 529kts
16-Apr-18 14:02 39.274362 -123.140796 181 31102ft 529kts
16-Apr-18 14:03 39.128920 -123.134744 178 30856ft 530kts
16-Apr-18 14:04 38.999753 -123.062586 149 29746ft 496kts
16-Apr-18 14:05 38.886028 -122.970000 161 29054ft 477kts
16-Apr-18 14:06 38.763716 -122.926218 173 28574ft 445kts
16-Apr-18 14:07 38.648334 -122.891953 173 26081ft 418kts
16-Apr-18 14:08 38.538377 -122.859550 173 24110ft 403kts
16-Apr-18 14:09 38.430035 -122.827695 172 22177ft 399kts
16-Apr-18 14:10 38.324948 -122.796852 172 20163ft 374kts
16-Apr-18 14:11 38.225359 -122.767721 172 19076ft 358kts
16-Apr-18 14:12 38.128424 -122.739534 172 19081ft 359kts
16-Apr-18 14:13 38.031932 -122.711565 171 17212ft 351kts
16-Apr-18 14:14 37.938374 -122.684486 171 16087ft 344kts
16-Apr-18 14:15 37.854752 -122.625183 144 14559ft 350kts
16-Apr-18 14:16 37.783816 -122.550626 142 12221ft 302kts
16-Apr-18 14:17 37.721267 -122.484426 142 11112ft 297kts
16-Apr-18 14:18 37.659358 -122.418596 142 11104ft 298kts
16-Apr-18 14:19 37.588168 -122.376803 182 10332ft 289kts
16-Apr-18 14:20 37.511235 -122.377287 182 8356ft 275kts
16-Apr-18 14:21 37.439884 -122.377233 174 6407ft 253kts
16-Apr-18 14:22 37.402306 -122.314681 82 4404ft 250kts
16-Apr-18 14:23 37.435672 -122.244991 53 4114ft 233kts
16-Apr-18 14:24 37.472407 -122.180436 52 4108ft 222kts
16-Apr-18 14:25 37.525234 -122.174799 312 3015ft 212kts
16-Apr-18 14:26 37.552897 -122.226005 303 1914ft 150kts
16-Apr-18 14:27 37.575168 -122.271774 293 1509ft 153kts
16-Apr-18 14:28 37.594453 -122.317281 295 864ft 133kts
16-Apr-18 14:29 37.610599 -122.355783 295 111ft 119kts
16-Apr-18 14:30 37.618927 -122.376293 276 24ft 9kts
16-Apr-18 14:31 37.618231 -122.380323 260 31ft 11kts

Navigation Log

Ident Type
1. KPDX Airport
2. RIVRR Fix
3. COSUG Fix
4. BISLE Fix
5. MINNE Fix
6. EASON Fix
7. EASON Navaid
8. EBINY Navaid
9. ELENN Navaid
10. ENVIE Navaid
11. TOCOS Navaid
12. ETCHY Navaid
13. MLBEC Fix
14. JONNE Fix
15. BGGLO Fix
16. LOZIT Fix
17. BDEGA Fix
18. CORKK Fix
19. BRIXX Fix
20. KSFO Airport